sensor_id;sensor_type;location;lat;lon;timestamp;temperature;humidity
52495;DHT22;38405;53.212;5.660;2023-05-16T00:02:06;8.10;99.90
52495;DHT22;38405;53.212;5.660;2023-05-16T00:04:31;8.10;99.90
52495;DHT22;38405;53.212;5.660;2023-05-16T00:06:57;8.10;99.90
52495;DHT22;38405;53.212;5.660;2023-05-16T00:09:23;8.10;99.90
52495;DHT22;38405;53.212;5.660;2023-05-16T00:11:49;8.10;99.90
52495;DHT22;38405;53.212;5.660;2023-05-16T00:14:15;8.10;99.90
52495;DHT22;38405;53.212;5.660;2023-05-16T00:16:41;8.00;99.90
52495;DHT22;38405;53.212;5.660;2023-05-16T00:19:07;8.00;99.90
52495;DHT22;38405;53.212;5.660;2023-05-16T00:21:32;8.00;99.90
52495;DHT22;38405;53.212;5.660;2023-05-16T00:23:58;8.00;99.90
52495;DHT22;38405;53.212;5.660;2023-05-16T00:26:24;8.00;99.90
52495;DHT22;38405;53.212;5.660;2023-05-16T00:28:50;8.00;99.90
52495;DHT22;38405;53.212;5.660;2023-05-16T00:31:16;8.00;99.90
52495;DHT22;38405;53.212;5.660;2023-05-16T00:33:41;8.10;99.90
52495;DHT22;38405;53.212;5.660;2023-05-16T00:36:07;8.10;99.90
52495;DHT22;38405;53.212;5.660;2023-05-16T00:38:33;8.00;99.90
52495;DHT22;38405;53.212;5.660;2023-05-16T00:40:58;8.00;99.90
52495;DHT22;38405;53.212;5.660;2023-05-16T00:43:24;8.00;99.90
52495;DHT22;38405;53.212;5.660;2023-05-16T00:45:50;8.10;99.90
52495;DHT22;38405;53.212;5.660;2023-05-16T00:48:15;8.00;99.90
52495;DHT22;38405;53.212;5.660;2023-05-16T00:50:41;8.00;99.90
52495;DHT22;38405;53.212;5.660;2023-05-16T00:53:08;7.90;99.90
52495;DHT22;38405;53.212;5.660;2023-05-16T00:55:34;7.90;99.90
52495;DHT22;38405;53.212;5.660;2023-05-16T00:58:00;7.90;99.90
52495;DHT22;38405;53.212;5.660;2023-05-16T01:00:26;7.80;99.90
52495;DHT22;38405;53.212;5.660;2023-05-16T01:02:51;7.80;99.90
52495;DHT22;38405;53.212;5.660;2023-05-16T01:05:20;7.80;99.90
52495;DHT22;38405;53.212;5.660;2023-05-16T01:07:46;7.80;99.90
52495;DHT22;38405;53.212;5.660;2023-05-16T01:10:12;7.90;99.90
52495;DHT22;38405;53.212;5.660;2023-05-16T01:12:53;7.80;99.90
52495;DHT22;38405;53.212;5.660;2023-05-16T01:15:31;7.80;99.90
52495;DHT22;38405;53.212;5.660;2023-05-16T01:18:24;7.90;99.90
52495;DHT22;38405;53.212;5.660;2023-05-16T01:21:07;7.90;99.90
52495;DHT22;38405;53.212;5.660;2023-05-16T01:26:49;7.90;99.90
52495;DHT22;38405;53.212;5.660;2023-05-16T01:29:16;7.90;99.90
52495;DHT22;38405;53.212;5.660;2023-05-16T01:31:42;7.90;99.90
52495;DHT22;38405;53.212;5.660;2023-05-16T01:34:08;7.90;99.90
52495;DHT22;38405;53.212;5.660;2023-05-16T01:39:32;7.70;99.90
52495;DHT22;38405;53.212;5.660;2023-05-16T01:42:02;7.70;99.90
52495;DHT22;38405;53.212;5.660;2023-05-16T01:47:15;7.60;99.90
52495;DHT22;38405;53.212;5.660;2023-05-16T01:49:57;7.60;99.90
52495;DHT22;38405;53.212;5.660;2023-05-16T01:52:37;7.60;99.90
52495;DHT22;38405;53.212;5.660;2023-05-16T01:55:07;7.50;99.90
52495;DHT22;38405;53.212;5.660;2023-05-16T01:57:35;7.50;99.90
52495;DHT22;38405;53.212;5.660;2023-05-16T02:00:01;7.60;99.90
52495;DHT22;38405;53.212;5.660;2023-05-16T02:02:27;7.40;99.90
52495;DHT22;38405;53.212;5.660;2023-05-16T02:04:52;7.40;99.90
52495;DHT22;38405;53.212;5.660;2023-05-16T02:07:18;7.40;99.90
52495;DHT22;38405;53.212;5.660;2023-05-16T02:09:44;7.50;99.90
52495;DHT22;38405;53.212;5.660;2023-05-16T02:12:09;7.40;99.90
52495;DHT22;38405;53.212;5.660;2023-05-16T02:14:35;7.40;99.90
52495;DHT22;38405;53.212;5.660;2023-05-16T02:17:01;7.40;99.90
52495;DHT22;38405;53.212;5.660;2023-05-16T02:19:26;8.00;99.90
52495;DHT22;38405;53.212;5.660;2023-05-16T02:21:52;7.40;99.90
52495;DHT22;38405;53.212;5.660;2023-05-16T02:24:17;7.40;99.90
52495;DHT22;38405;53.212;5.660;2023-05-16T02:26:43;7.30;99.90
52495;DHT22;38405;53.212;5.660;2023-05-16T02:29:09;7.30;99.90
52495;DHT22;38405;53.212;5.660;2023-05-16T02:31:35;7.30;99.90
52495;DHT22;38405;53.212;5.660;2023-05-16T02:34:00;7.30;99.90
52495;DHT22;38405;53.212;5.660;2023-05-16T02:36:27;7.30;99.90
52495;DHT22;38405;53.212;5.660;2023-05-16T02:38:52;7.40;99.90
52495;DHT22;38405;53.212;5.660;2023-05-16T02:41:18;7.30;99.90
52495;DHT22;38405;53.212;5.660;2023-05-16T02:43:47;7.30;99.90
52495;DHT22;38405;53.212;5.660;2023-05-16T02:46:30;7.30;99.90
52495;DHT22;38405;53.212;5.660;2023-05-16T02:48:56;7.20;99.90
52495;DHT22;38405;53.212;5.660;2023-05-16T02:51:24;7.20;99.90
52495;DHT22;38405;53.212;5.660;2023-05-16T02:53:51;7.40;99.90
52495;DHT22;38405;53.212;5.660;2023-05-16T02:56:17;7.20;99.90
52495;DHT22;38405;53.212;5.660;2023-05-16T02:58:47;7.30;99.90
52495;DHT22;38405;53.212;5.660;2023-05-16T03:01:13;7.30;99.90
52495;DHT22;38405;53.212;5.660;2023-05-16T03:03:40;7.30;99.90
52495;DHT22;38405;53.212;5.660;2023-05-16T03:06:05;7.30;99.90
52495;DHT22;38405;53.212;5.660;2023-05-16T03:08:32;7.30;99.90
52495;DHT22;38405;53.212;5.660;2023-05-16T03:10:58;7.20;99.90
52495;DHT22;38405;53.212;5.660;2023-05-16T03:13:23;7.20;99.90
52495;DHT22;38405;53.212;5.660;2023-05-16T03:15:49;7.20;99.90
52495;DHT22;38405;53.212;5.660;2023-05-16T03:18:15;7.10;99.90
52495;DHT22;38405;53.212;5.660;2023-05-16T03:20:41;7.20;99.90
52495;DHT22;38405;53.212;5.660;2023-05-16T03:23:06;7.20;99.90
52495;DHT22;38405;53.212;5.660;2023-05-16T03:25:36;7.30;99.90
52495;DHT22;38405;53.212;5.660;2023-05-16T03:28:05;7.30;99.90
52495;DHT22;38405;53.212;5.660;2023-05-16T03:30:34;7.30;99.90
52495;DHT22;38405;53.212;5.660;2023-05-16T03:33:00;7.40;99.90
52495;DHT22;38405;53.212;5.660;2023-05-16T03:35:27;7.40;99.90
52495;DHT22;38405;53.212;5.660;2023-05-16T03:37:53;7.40;99.90
52495;DHT22;38405;53.212;5.660;2023-05-16T03:40:19;7.50;99.90
52495;DHT22;38405;53.212;5.660;2023-05-16T03:42:46;7.40;99.90
52495;DHT22;38405;53.212;5.660;2023-05-16T03:45:12;7.50;99.90
52495;DHT22;38405;53.212;5.660;2023-05-16T03:47:37;7.50;99.90
52495;DHT22;38405;53.212;5.660;2023-05-16T03:50:04;7.50;99.90
52495;DHT22;38405;53.212;5.660;2023-05-16T03:52:30;7.60;99.90
52495;DHT22;38405;53.212;5.660;2023-05-16T03:54:55;7.60;99.90
52495;DHT22;38405;53.212;5.660;2023-05-16T03:57:21;7.60;99.90
52495;DHT22;38405;53.212;5.660;2023-05-16T03:59:47;7.60;99.90
52495;DHT22;38405;53.212;5.660;2023-05-16T04:02:13;7.60;99.90
52495;DHT22;38405;53.212;5.660;2023-05-16T04:04:38;7.60;99.90
52495;DHT22;38405;53.212;5.660;2023-05-16T04:07:04;7.60;99.90
52495;DHT22;38405;53.212;5.660;2023-05-16T04:09:31;7.60;99.90
52495;DHT22;38405;53.212;5.660;2023-05-16T04:11:57;7.60;99.90
52495;DHT22;38405;53.212;5.660;2023-05-16T04:14:26;7.70;99.90
52495;DHT22;38405;53.212;5.660;2023-05-16T04:16:51;7.70;99.90
52495;DHT22;38405;53.212;5.660;2023-05-16T04:19:17;7.80;99.90
52495;DHT22;38405;53.212;5.660;2023-05-16T04:21:43;7.80;99.90
52495;DHT22;38405;53.212;5.660;2023-05-16T04:24:08;7.90;99.90
52495;DHT22;38405;53.212;5.660;2023-05-16T04:26:35;8.10;99.90
52495;DHT22;38405;53.212;5.660;2023-05-16T04:29:02;8.20;99.90
52495;DHT22;38405;53.212;5.660;2023-05-16T04:31:27;8.30;99.90
52495;DHT22;38405;53.212;5.660;2023-05-16T04:33:53;8.30;99.90
52495;DHT22;38405;53.212;5.660;2023-05-16T04:36:19;8.30;99.90
52495;DHT22;38405;53.212;5.660;2023-05-16T04:38:45;8.40;99.90
52495;DHT22;38405;53.212;5.660;2023-05-16T04:41:13;8.40;99.90
52495;DHT22;38405;53.212;5.660;2023-05-16T04:43:39;8.60;99.90
52495;DHT22;38405;53.212;5.660;2023-05-16T04:46:05;8.80;99.90
52495;DHT22;38405;53.212;5.660;2023-05-16T04:48:33;8.90;99.90
52495;DHT22;38405;53.212;5.660;2023-05-16T04:50:58;9.10;99.90
52495;DHT22;38405;53.212;5.660;2023-05-16T04:53:24;9.20;99.90
52495;DHT22;38405;53.212;5.660;2023-05-16T04:55:50;9.30;99.90
52495;DHT22;38405;53.212;5.660;2023-05-16T04:58:16;9.30;99.90
52495;DHT22;38405;53.212;5.660;2023-05-16T05:00:42;9.40;99.90
52495;DHT22;38405;53.212;5.660;2023-05-16T05:03:07;9.20;99.90
52495;DHT22;38405;53.212;5.660;2023-05-16T05:05:33;9.10;99.90
52495;DHT22;38405;53.212;5.660;2023-05-16T05:07:59;9.00;99.90
52495;DHT22;38405;53.212;5.660;2023-05-16T05:10:26;9.00;99.90
52495;DHT22;38405;53.212;5.660;2023-05-16T05:12:55;8.90;99.90
52495;DHT22;38405;53.212;5.660;2023-05-16T05:15:21;9.00;99.90
52495;DHT22;38405;53.212;5.660;2023-05-16T05:17:47;9.00;99.90
52495;DHT22;38405;53.212;5.660;2023-05-16T05:20:13;9.10;99.90
52495;DHT22;38405;53.212;5.660;2023-05-16T05:22:38;9.20;99.90
52495;DHT22;38405;53.212;5.660;2023-05-16T05:25:04;9.50;99.90
52495;DHT22;38405;53.212;5.660;2023-05-16T05:27:30;9.70;99.90
52495;DHT22;38405;53.212;5.660;2023-05-16T05:29:56;9.80;99.90
52495;DHT22;38405;53.212;5.660;2023-05-16T05:32:21;9.80;99.90
52495;DHT22;38405;53.212;5.660;2023-05-16T05:34:47;9.70;99.90
52495;DHT22;38405;53.212;5.660;2023-05-16T05:37:13;9.70;99.90
52495;DHT22;38405;53.212;5.660;2023-05-16T05:39:39;9.50;99.90
52495;DHT22;38405;53.212;5.660;2023-05-16T05:42:05;9.40;99.90
52495;DHT22;38405;53.212;5.660;2023-05-16T05:44:31;9.40;99.90
52495;DHT22;38405;53.212;5.660;2023-05-16T05:46:57;9.30;99.90
52495;DHT22;38405;53.212;5.660;2023-05-16T05:49:24;9.40;99.90
52495;DHT22;38405;53.212;5.660;2023-05-16T05:51:50;9.40;99.90
52495;DHT22;38405;53.212;5.660;2023-05-16T05:54:17;9.50;99.90
52495;DHT22;38405;53.212;5.660;2023-05-16T05:56:43;9.70;99.90
52495;DHT22;38405;53.212;5.660;2023-05-16T05:59:09;9.90;99.90
52495;DHT22;38405;53.212;5.660;2023-05-16T06:01:35;10.20;99.90
52495;DHT22;38405;53.212;5.660;2023-05-16T06:04:01;10.50;99.90
52495;DHT22;38405;53.212;5.660;2023-05-16T06:06:27;10.70;99.90
52495;DHT22;38405;53.212;5.660;2023-05-16T06:08:52;10.90;99.90
52495;DHT22;38405;53.212;5.660;2023-05-16T06:11:18;10.90;99.90
52495;DHT22;38405;53.212;5.660;2023-05-16T06:13:44;10.90;99.90
52495;DHT22;38405;53.212;5.660;2023-05-16T06:16:09;10.90;99.90
52495;DHT22;38405;53.212;5.660;2023-05-16T06:18:35;10.80;99.90
52495;DHT22;38405;53.212;5.660;2023-05-16T06:21:01;10.80;99.90
52495;DHT22;38405;53.212;5.660;2023-05-16T06:23:26;10.90;99.90
52495;DHT22;38405;53.212;5.660;2023-05-16T06:25:52;10.90;99.90
52495;DHT22;38405;53.212;5.660;2023-05-16T06:28:17;11.00;99.90
52495;DHT22;38405;53.212;5.660;2023-05-16T06:30:43;11.40;99.90
52495;DHT22;38405;53.212;5.660;2023-05-16T06:33:09;12.60;99.90
52495;DHT22;38405;53.212;5.660;2023-05-16T06:35:34;13.40;99.90
52495;DHT22;38405;53.212;5.660;2023-05-16T06:38:00;13.40;99.90
52495;DHT22;38405;53.212;5.660;2023-05-16T06:40:26;13.90;99.90
52495;DHT22;38405;53.212;5.660;2023-05-16T06:42:51;14.40;99.90
52495;DHT22;38405;53.212;5.660;2023-05-16T06:45:17;14.60;99.90
52495;DHT22;38405;53.212;5.660;2023-05-16T06:47:43;15.00;99.90
52495;DHT22;38405;53.212;5.660;2023-05-16T06:50:09;15.60;99.90
52495;DHT22;38405;53.212;5.660;2023-05-16T06:52:35;15.50;99.90
52495;DHT22;38405;53.212;5.660;2023-05-16T06:55:00;15.80;99.90
52495;DHT22;38405;53.212;5.660;2023-05-16T06:57:26;15.90;99.90
52495;DHT22;38405;53.212;5.660;2023-05-16T06:59:53;15.20;99.90
52495;DHT22;38405;53.212;5.660;2023-05-16T07:02:19;14.00;99.90
52495;DHT22;38405;53.212;5.660;2023-05-16T07:04:45;14.10;99.90
52495;DHT22;38405;53.212;5.660;2023-05-16T07:07:10;14.90;99.90
52495;DHT22;38405;53.212;5.660;2023-05-16T07:09:36;15.90;99.90
52495;DHT22;38405;53.212;5.660;2023-05-16T07:12:01;16.70;99.90
52495;DHT22;38405;53.212;5.660;2023-05-16T07:14:27;16.80;99.90
52495;DHT22;38405;53.212;5.660;2023-05-16T07:16:53;16.00;99.90
52495;DHT22;38405;53.212;5.660;2023-05-16T07:19:18;15.10;99.90
52495;DHT22;38405;53.212;5.660;2023-05-16T07:21:44;14.40;99.90
52495;DHT22;38405;53.212;5.660;2023-05-16T07:24:10;14.00;99.90
52495;DHT22;38405;53.212;5.660;2023-05-16T07:26:35;14.10;99.90
52495;DHT22;38405;53.212;5.660;2023-05-16T07:29:01;14.70;99.90
52495;DHT22;38405;53.212;5.660;2023-05-16T07:31:28;15.30;99.90
52495;DHT22;38405;53.212;5.660;2023-05-16T07:33:55;15.20;99.90
52495;DHT22;38405;53.212;5.660;2023-05-16T07:36:21;15.10;99.90
52495;DHT22;38405;53.212;5.660;2023-05-16T07:38:47;16.00;99.90
52495;DHT22;38405;53.212;5.660;2023-05-16T07:41:13;16.80;99.90
52495;DHT22;38405;53.212;5.660;2023-05-16T07:43:38;17.70;99.90
52495;DHT22;38405;53.212;5.660;2023-05-16T07:46:04;18.10;99.90
52495;DHT22;38405;53.212;5.660;2023-05-16T07:48:30;18.30;99.90
52495;DHT22;38405;53.212;5.660;2023-05-16T07:50:56;18.80;99.90
52495;DHT22;38405;53.212;5.660;2023-05-16T07:53:22;18.90;99.90
52495;DHT22;38405;53.212;5.660;2023-05-16T07:55:48;18.60;99.90
52495;DHT22;38405;53.212;5.660;2023-05-16T07:58:14;18.30;99.90
52495;DHT22;38405;53.212;5.660;2023-05-16T08:00:40;18.00;99.90
52495;DHT22;38405;53.212;5.660;2023-05-16T08:03:05;17.30;99.90
52495;DHT22;38405;53.212;5.660;2023-05-16T08:05:31;16.40;99.90
52495;DHT22;38405;53.212;5.660;2023-05-16T08:07:57;15.80;99.90
52495;DHT22;38405;53.212;5.660;2023-05-16T08:10:23;16.50;99.90
52495;DHT22;38405;53.212;5.660;2023-05-16T08:12:48;16.90;99.90
52495;DHT22;38405;53.212;5.660;2023-05-16T08:15:14;17.60;99.90
52495;DHT22;38405;53.212;5.660;2023-05-16T08:17:40;18.10;99.90
52495;DHT22;38405;53.212;5.660;2023-05-16T08:20:07;17.70;99.90
52495;DHT22;38405;53.212;5.660;2023-05-16T08:22:32;17.10;99.90
52495;DHT22;38405;53.212;5.660;2023-05-16T08:24:58;16.80;99.90
52495;DHT22;38405;53.212;5.660;2023-05-16T08:27:26;16.20;99.90
52495;DHT22;38405;53.212;5.660;2023-05-16T08:29:52;15.20;99.90
52495;DHT22;38405;53.212;5.660;2023-05-16T08:32:17;15.80;99.90
52495;DHT22;38405;53.212;5.660;2023-05-16T08:34:43;16.80;99.90
52495;DHT22;38405;53.212;5.660;2023-05-16T08:37:09;17.60;99.90
52495;DHT22;38405;53.212;5.660;2023-05-16T08:39:37;18.40;99.90
52495;DHT22;38405;53.212;5.660;2023-05-16T08:42:03;18.80;99.90
52495;DHT22;38405;53.212;5.660;2023-05-16T08:44:29;18.70;99.90
52495;DHT22;38405;53.212;5.660;2023-05-16T08:46:56;17.50;99.90
52495;DHT22;38405;53.212;5.660;2023-05-16T08:49:22;16.30;99.90
52495;DHT22;38405;53.212;5.660;2023-05-16T08:51:51;16.60;99.90
52495;DHT22;38405;53.212;5.660;2023-05-16T08:54:21;16.70;99.90
52495;DHT22;38405;53.212;5.660;2023-05-16T08:56:47;16.00;99.90
52495;DHT22;38405;53.212;5.660;2023-05-16T08:59:14;16.10;99.90
52495;DHT22;38405;53.212;5.660;2023-05-16T09:01:40;16.40;99.90
52495;DHT22;38405;53.212;5.660;2023-05-16T09:04:07;15.80;99.90
52495;DHT22;38405;53.212;5.660;2023-05-16T09:06:36;15.20;99.90
52495;DHT22;38405;53.212;5.660;2023-05-16T09:09:03;14.70;99.90
52495;DHT22;38405;53.212;5.660;2023-05-16T09:11:29;15.10;99.90
52495;DHT22;38405;53.212;5.660;2023-05-16T09:13:55;16.30;99.90
52495;DHT22;38405;53.212;5.660;2023-05-16T09:16:20;16.40;99.90
52495;DHT22;38405;53.212;5.660;2023-05-16T09:18:54;16.50;99.90
52495;DHT22;38405;53.212;5.660;2023-05-16T09:21:21;16.50;99.90
52495;DHT22;38405;53.212;5.660;2023-05-16T09:23:48;16.40;99.90
52495;DHT22;38405;53.212;5.660;2023-05-16T09:26:14;16.80;99.90
52495;DHT22;38405;53.212;5.660;2023-05-16T09:28:40;17.60;99.90
52495;DHT22;38405;53.212;5.660;2023-05-16T09:31:22;17.60;99.90
52495;DHT22;38405;53.212;5.660;2023-05-16T09:33:59;17.10;99.90
52495;DHT22;38405;53.212;5.660;2023-05-16T09:36:25;16.50;99.90
52495;DHT22;38405;53.212;5.660;2023-05-16T09:38:52;16.40;99.90
52495;DHT22;38405;53.212;5.660;2023-05-16T09:41:17;16.40;99.90
52495;DHT22;38405;53.212;5.660;2023-05-16T09:43:44;16.50;99.90
52495;DHT22;38405;53.212;5.660;2023-05-16T09:46:16;16.70;99.90
52495;DHT22;38405;53.212;5.660;2023-05-16T09:48:45;16.10;99.90
52495;DHT22;38405;53.212;5.660;2023-05-16T09:51:12;15.90;99.90
52495;DHT22;38405;53.212;5.660;2023-05-16T09:53:39;15.80;99.90
52495;DHT22;38405;53.212;5.660;2023-05-16T09:56:07;15.80;99.90
52495;DHT22;38405;53.212;5.660;2023-05-16T09:58:36;15.80;99.90
52495;DHT22;38405;53.212;5.660;2023-05-16T10:01:02;15.90;99.90
52495;DHT22;38405;53.212;5.660;2023-05-16T10:03:28;15.80;99.90
52495;DHT22;38405;53.212;5.660;2023-05-16T10:05:55;15.40;99.90
52495;DHT22;38405;53.212;5.660;2023-05-16T10:08:22;15.00;99.90
52495;DHT22;38405;53.212;5.660;2023-05-16T10:10:55;14.70;99.90
52495;DHT22;38405;53.212;5.660;2023-05-16T10:13:28;14.50;99.90
52495;DHT22;38405;53.212;5.660;2023-05-16T10:15:57;14.50;99.90
52495;DHT22;38405;53.212;5.660;2023-05-16T10:18:30;14.50;99.90
52495;DHT22;38405;53.212;5.660;2023-05-16T10:21:03;14.40;99.90
52495;DHT22;38405;53.212;5.660;2023-05-16T10:23:30;14.20;99.90
52495;DHT22;38405;53.212;5.660;2023-05-16T10:25:59;14.00;99.90
52495;DHT22;38405;53.212;5.660;2023-05-16T10:28:25;14.00;99.90
52495;DHT22;38405;53.212;5.660;2023-05-16T10:30:52;14.50;99.90
52495;DHT22;38405;53.212;5.660;2023-05-16T10:33:18;14.90;99.90
52495;DHT22;38405;53.212;5.660;2023-05-16T10:35:47;15.10;99.90
52495;DHT22;38405;53.212;5.660;2023-05-16T10:38:15;15.10;99.90
52495;DHT22;38405;53.212;5.660;2023-05-16T10:40:41;15.20;99.90
52495;DHT22;38405;53.212;5.660;2023-05-16T10:43:08;14.70;99.90
52495;DHT22;38405;53.212;5.660;2023-05-16T10:45:40;14.80;99.90
52495;DHT22;38405;53.212;5.660;2023-05-16T10:48:06;14.90;99.90
52495;DHT22;38405;53.212;5.660;2023-05-16T10:55:49;15.20;99.90
52495;DHT22;38405;53.212;5.660;2023-05-16T11:01:27;15.50;99.90
52495;DHT22;38405;53.212;5.660;2023-05-16T11:06:30;16.00;99.90
52495;DHT22;38405;53.212;5.660;2023-05-16T11:14:21;16.30;99.90
52495;DHT22;38405;53.212;5.660;2023-05-16T11:16:49;16.20;99.90
52495;DHT22;38405;53.212;5.660;2023-05-16T11:19:34;16.00;99.90
52495;DHT22;38405;53.212;5.660;2023-05-16T11:24:55;15.70;99.90
52495;DHT22;38405;53.212;5.660;2023-05-16T11:27:35;15.70;99.90
52495;DHT22;38405;53.212;5.660;2023-05-16T11:30:14;15.80;99.90
52495;DHT22;38405;53.212;5.660;2023-05-16T11:32:43;16.00;99.90
52495;DHT22;38405;53.212;5.660;2023-05-16T11:35:11;16.10;99.90
52495;DHT22;38405;53.212;5.660;2023-05-16T11:37:37;16.20;99.90
52495;DHT22;38405;53.212;5.660;2023-05-16T11:40:05;16.10;99.90
52495;DHT22;38405;53.212;5.660;2023-05-16T11:42:38;16.00;99.90
52495;DHT22;38405;53.212;5.660;2023-05-16T11:45:15;15.90;99.90
52495;DHT22;38405;53.212;5.660;2023-05-16T11:47:43;16.10;99.90
52495;DHT22;38405;53.212;5.660;2023-05-16T11:50:17;15.90;99.90
52495;DHT22;38405;53.212;5.660;2023-05-16T11:52:47;16.00;99.90
52495;DHT22;38405;53.212;5.660;2023-05-16T11:55:15;16.10;99.90
52495;DHT22;38405;53.212;5.660;2023-05-16T11:57:42;15.80;99.90
52495;DHT22;38405;53.212;5.660;2023-05-16T12:02:37;15.40;99.90
52495;DHT22;38405;53.212;5.660;2023-05-16T12:05:09;15.30;99.90
52495;DHT22;38405;53.212;5.660;2023-05-16T12:07:36;15.20;99.90
52495;DHT22;38405;53.212;5.660;2023-05-16T12:10:07;15.20;99.90
52495;DHT22;38405;53.212;5.660;2023-05-16T12:12:38;15.20;99.90
52495;DHT22;38405;53.212;5.660;2023-05-16T12:15:06;15.30;99.90
52495;DHT22;38405;53.212;5.660;2023-05-16T12:17:36;15.40;99.90
52495;DHT22;38405;53.212;5.660;2023-05-16T12:20:04;15.60;99.90
52495;DHT22;38405;53.212;5.660;2023-05-16T12:22:31;15.50;99.90
52495;DHT22;38405;53.212;5.660;2023-05-16T12:25:32;15.40;99.90
52495;DHT22;38405;53.212;5.660;2023-05-16T12:28:01;15.30;99.90
52495;DHT22;38405;53.212;5.660;2023-05-16T12:30:29;15.20;99.90
52495;DHT22;38405;53.212;5.660;2023-05-16T12:32:59;15.40;99.90
52495;DHT22;38405;53.212;5.660;2023-05-16T12:35:30;15.50;99.90
52495;DHT22;38405;53.212;5.660;2023-05-16T12:37:56;15.50;99.90
52495;DHT22;38405;53.212;5.660;2023-05-16T12:40:22;15.50;99.90
52495;DHT22;38405;53.212;5.660;2023-05-16T12:42:52;15.40;99.90
52495;DHT22;38405;53.212;5.660;2023-05-16T12:45:18;15.20;99.90
52495;DHT22;38405;53.212;5.660;2023-05-16T12:47:44;15.20;99.90
52495;DHT22;38405;53.212;5.660;2023-05-16T12:50:11;15.10;99.90
52495;DHT22;38405;53.212;5.660;2023-05-16T12:52:52;15.30;99.90
52495;DHT22;38405;53.212;5.660;2023-05-16T12:55:20;15.30;99.90
52495;DHT22;38405;53.212;5.660;2023-05-16T12:57:47;15.30;99.90
52495;DHT22;38405;53.212;5.660;2023-05-16T13:00:15;15.60;99.90
52495;DHT22;38405;53.212;5.660;2023-05-16T13:02:41;15.90;99.90
52495;DHT22;38405;53.212;5.660;2023-05-16T13:05:07;16.00;99.90
52495;DHT22;38405;53.212;5.660;2023-05-16T13:07:33;15.90;99.90
52495;DHT22;38405;53.212;5.660;2023-05-16T13:09:59;15.90;99.90
52495;DHT22;38405;53.212;5.660;2023-05-16T13:12:25;15.90;99.90
52495;DHT22;38405;53.212;5.660;2023-05-16T13:14:52;16.00;99.90
52495;DHT22;38405;53.212;5.660;2023-05-16T13:17:18;16.00;99.90
52495;DHT22;38405;53.212;5.660;2023-05-16T13:19:43;16.00;99.90
52495;DHT22;38405;53.212;5.660;2023-05-16T13:22:09;16.00;99.90
52495;DHT22;38405;53.212;5.660;2023-05-16T13:24:35;16.10;99.90
52495;DHT22;38405;53.212;5.660;2023-05-16T13:27:01;16.00;99.90
52495;DHT22;38405;53.212;5.660;2023-05-16T13:29:27;15.80;99.90
52495;DHT22;38405;53.212;5.660;2023-05-16T13:31:52;15.60;99.90
52495;DHT22;38405;53.212;5.660;2023-05-16T13:34:18;15.50;99.90
52495;DHT22;38405;53.212;5.660;2023-05-16T13:36:43;15.60;99.90
52495;DHT22;38405;53.212;5.660;2023-05-16T13:39:12;15.70;99.90
52495;DHT22;38405;53.212;5.660;2023-05-16T13:41:37;15.80;99.90
52495;DHT22;38405;53.212;5.660;2023-05-16T13:44:05;15.80;99.90
52495;DHT22;38405;53.212;5.660;2023-05-16T13:46:31;15.70;99.90
52495;DHT22;38405;53.212;5.660;2023-05-16T13:48:56;15.60;99.90
52495;DHT22;38405;53.212;5.660;2023-05-16T13:51:22;15.50;99.90
52495;DHT22;38405;53.212;5.660;2023-05-16T13:53:48;15.60;99.90
52495;DHT22;38405;53.212;5.660;2023-05-16T13:56:13;15.50;99.90
52495;DHT22;38405;53.212;5.660;2023-05-16T13:58:39;15.40;99.90
52495;DHT22;38405;53.212;5.660;2023-05-16T14:01:05;15.30;99.90
52495;DHT22;38405;53.212;5.660;2023-05-16T14:03:30;15.30;99.90
52495;DHT22;38405;53.212;5.660;2023-05-16T14:05:56;15.30;99.90
52495;DHT22;38405;53.212;5.660;2023-05-16T14:08:22;15.20;99.90
52495;DHT22;38405;53.212;5.660;2023-05-16T14:10:48;15.10;99.90
52495;DHT22;38405;53.212;5.660;2023-05-16T14:13:13;15.00;99.90
52495;DHT22;38405;53.212;5.660;2023-05-16T14:15:39;14.90;99.90
52495;DHT22;38405;53.212;5.660;2023-05-16T14:18:05;14.80;99.90
52495;DHT22;38405;53.212;5.660;2023-05-16T14:20:30;14.70;99.90
52495;DHT22;38405;53.212;5.660;2023-05-16T14:22:56;14.70;99.90
52495;DHT22;38405;53.212;5.660;2023-05-16T14:25:21;14.70;99.90
52495;DHT22;38405;53.212;5.660;2023-05-16T14:27:47;14.80;99.90
52495;DHT22;38405;53.212;5.660;2023-05-16T14:30:15;14.90;99.90
52495;DHT22;38405;53.212;5.660;2023-05-16T14:32:41;14.90;99.90
52495;DHT22;38405;53.212;5.660;2023-05-16T14:35:07;14.90;99.90
52495;DHT22;38405;53.212;5.660;2023-05-16T14:37:36;14.80;99.90
52495;DHT22;38405;53.212;5.660;2023-05-16T14:40:02;14.70;99.90
52495;DHT22;38405;53.212;5.660;2023-05-16T14:42:29;14.50;99.90
52495;DHT22;38405;53.212;5.660;2023-05-16T14:44:55;14.30;99.90
52495;DHT22;38405;53.212;5.660;2023-05-16T14:47:22;14.00;99.90
52495;DHT22;38405;53.212;5.660;2023-05-16T14:49:47;13.80;99.90
52495;DHT22;38405;53.212;5.660;2023-05-16T14:52:13;13.60;99.90
52495;DHT22;38405;53.212;5.660;2023-05-16T14:54:38;13.50;99.90
52495;DHT22;38405;53.212;5.660;2023-05-16T14:57:04;13.50;99.90
52495;DHT22;38405;53.212;5.660;2023-05-16T14:59:32;13.50;99.90
52495;DHT22;38405;53.212;5.660;2023-05-16T15:01:58;13.40;99.90
52495;DHT22;38405;53.212;5.660;2023-05-16T15:04:25;13.40;99.90
52495;DHT22;38405;53.212;5.660;2023-05-16T15:06:51;13.40;99.90
52495;DHT22;38405;53.212;5.660;2023-05-16T15:09:17;13.40;99.90
52495;DHT22;38405;53.212;5.660;2023-05-16T15:11:43;13.40;99.90
52495;DHT22;38405;53.212;5.660;2023-05-16T15:14:10;13.50;99.90
52495;DHT22;38405;53.212;5.660;2023-05-16T15:16:36;13.50;99.90
52495;DHT22;38405;53.212;5.660;2023-05-16T15:19:01;13.50;99.90
52495;DHT22;38405;53.212;5.660;2023-05-16T15:21:27;13.60;99.90
52495;DHT22;38405;53.212;5.660;2023-05-16T15:23:53;13.80;99.90
52495;DHT22;38405;53.212;5.660;2023-05-16T15:26:20;13.80;99.90
52495;DHT22;38405;53.212;5.660;2023-05-16T15:28:47;13.80;99.90
52495;DHT22;38405;53.212;5.660;2023-05-16T15:31:12;13.90;99.90
52495;DHT22;38405;53.212;5.660;2023-05-16T15:33:38;13.90;99.90
52495;DHT22;38405;53.212;5.660;2023-05-16T15:36:04;14.00;99.90
52495;DHT22;38405;53.212;5.660;2023-05-16T15:38:30;14.00;99.90
52495;DHT22;38405;53.212;5.660;2023-05-16T15:40:56;14.00;99.90
52495;DHT22;38405;53.212;5.660;2023-05-16T15:43:22;14.00;99.90
52495;DHT22;38405;53.212;5.660;2023-05-16T15:45:47;14.10;99.90
52495;DHT22;38405;53.212;5.660;2023-05-16T15:48:13;14.30;99.90
52495;DHT22;38405;53.212;5.660;2023-05-16T15:50:39;14.40;99.90
52495;DHT22;38405;53.212;5.660;2023-05-16T15:53:04;14.50;99.90
52495;DHT22;38405;53.212;5.660;2023-05-16T15:55:30;14.60;99.90
52495;DHT22;38405;53.212;5.660;2023-05-16T15:57:56;14.60;99.90
52495;DHT22;38405;53.212;5.660;2023-05-16T16:00:25;14.60;99.90
52495;DHT22;38405;53.212;5.660;2023-05-16T16:02:51;14.50;99.90
52495;DHT22;38405;53.212;5.660;2023-05-16T16:05:17;14.50;99.90
52495;DHT22;38405;53.212;5.660;2023-05-16T16:07:42;14.40;99.90